ěÝzenÝ letovÚho provozu ╚eskÚ republiky
Letiste: LKLN Aktualizace: 27.02.2020 02:32:27  UTC
 METAR LKLN 27.02. 02:30 RRB
METAR LKLN 270230Z AUTO 24010KT 210V270 9999 BKN063 02/M02 Q1005=